Time;durP1;ratioP1;P1;durP2;ratioP2;P2;SDS_P1;SDS_P2;PMS_P1;PMS_P2;Temp;Humidity;BMP_temperature;BMP_pressure;BME280_temperature;BME280_humidity;BME280_pressure;Samples;Min_cycle;Max_cycle;Signal;HPM_P1;HPM_P2
2023/03/28 00:01:08;;;;;;;1.70;1.45;;;1.70;99.90;;;;;;5099909;28;20016;-69
2023/03/28 00:03:35;;;;;;;1.83;1.20;;;1.70;99.90;;;;;;5100198;28;20116;-70
2023/03/28 00:06:02;;;;;;;2.45;1.20;;;1.70;99.90;;;;;;5100119;28;20020;-70
2023/03/28 00:08:28;;;;;;;1.25;0.98;;;1.70;99.90;;;;;;5100178;28;20056;-70
2023/03/28 00:11:05;;;;;;;2.20;1.30;;;1.70;99.90;;;;;;5080011;28;20364;-70
2023/03/28 00:13:32;;;;;;;2.25;1.27;;;1.80;99.90;;;;;;5078942;28;20028;-70
2023/03/28 00:16:06;;;;;;;1.45;1.00;;;1.80;99.90;;;;;;5078663;28;20028;-69
2023/03/28 00:18:36;;;;;;;2.05;1.38;;;1.80;99.90;;;;;;5097077;28;20028;-69
2023/03/28 00:21:02;;;;;;;5.18;1.40;;;1.80;99.90;;;;;;5078507;28;20031;-70
2023/03/28 00:23:29;;;;;;;2.03;1.30;;;1.80;99.90;;;;;;5096700;28;20020;-70
2023/03/28 00:25:56;;;;;;;1.42;1.10;;;1.80;99.90;;;;;;5078495;28;20020;-69
2023/03/28 00:28:21;;;;;;;2.20;1.20;;;1.90;99.90;;;;;;5096616;28;20053;-70
2023/03/28 00:30:47;;;;;;;1.50;0.73;;;1.90;99.90;;;;;;5078419;28;20512;-70
2023/03/28 00:33:12;;;;;;;1.77;1.02;;;2.00;99.90;;;;;;5096233;28;20478;-70
2023/03/28 00:35:38;;;;;;;2.38;1.05;;;2.10;99.90;;;;;;5096490;28;20031;-69
2023/03/28 00:38:04;;;;;;;2.00;1.10;;;2.20;99.90;;;;;;5096092;28;20028;-69
2023/03/28 00:40:34;;;;;;;2.60;1.05;;;2.20;99.90;;;;;;5078258;28;20031;-70
2023/03/28 00:43:00;;;;;;;1.98;0.80;;;2.20;99.90;;;;;;5096440;28;20444;-70
2023/03/28 00:45:26;;;;;;;1.83;0.95;;;2.10;99.90;;;;;;5096257;28;20042;-69
2023/03/28 00:48:00;;;;;;;1.90;0.93;;;2.00;99.90;;;;;;5078109;28;20451;-70
2023/03/28 00:50:39;;;;;;;2.38;1.05;;;2.00;99.90;;;;;;5096259;28;20020;-70
2023/03/28 00:53:08;;;;;;;1.58;1.00;;;2.00;99.90;;;;;;5095822;28;20040;-69
2023/03/28 00:55:34;;;;;;;;;;;1.90;99.90;;;;;;5096499;28;20390;-69
2023/03/28 00:58:04;;;;;;;2.10;1.00;;;1.90;99.90;;;;;;5077849;28;19904;-70
2023/03/28 01:00:31;;;;;;;1.65;0.90;;;1.90;99.90;;;;;;5096267;28;20021;-69
2023/03/28 01:02:57;;;;;;;2.05;0.98;;;1.80;99.90;;;;;;5095747;28;20017;-69
2023/03/28 01:05:29;;;;;;;1.85;1.15;;;1.90;99.90;;;;;;5095947;28;20016;-69
2023/03/28 01:08:07;;;;;;;0.73;0.73;;;1.80;99.90;;;;;;5077881;28;20062;-70
2023/03/28 01:10:33;;;;;;;1.60;0.98;;;1.80;99.90;;;;;;5095894;28;20020;-69
2023/03/28 01:13:00;;;;;;;3.20;0.70;;;1.80;99.90;;;;;;5095809;28;20371;-70
2023/03/28 01:15:28;;;;;;;2.83;0.77;;;1.80;99.90;;;;;;5077645;28;20363;-70
2023/03/28 01:17:55;;;;;;;1.92;1.02;;;1.80;99.90;;;;;;5095680;28;20058;-70
2023/03/28 01:20:31;;;;;;;0.80;0.70;;;1.80;99.90;;;;;;5077471;28;20028;-70
2023/03/28 01:23:08;;;;;;;1.17;1.10;;;1.70;99.90;;;;;;5095031;28;20020;-70
2023/03/28 01:25:55;;;;;;;2.60;0.93;;;1.70;99.90;;;;;;5077236;28;20106;-69
2023/03/28 01:29:07;;;;;;;0.98;0.77;;;1.70;99.90;;;;;;5077875;28;20027;-70
2023/03/28 01:31:51;;;;;;;0.60;0.50;;;1.70;99.90;;;;;;5095896;28;20024;-69
2023/03/28 01:34:45;;;;;;;1.00;0.55;;;1.70;99.90;;;;;;5079324;28;20035;-69
2023/03/28 01:37:25;;;;;;;1.48;0.70;;;1.70;99.90;;;;;;5098014;28;20020;-70
2023/03/28 01:40:19;;;;;;;3.50;1.00;;;1.80;99.90;;;;;;5097517;28;20051;-69
2023/03/28 01:42:51;;;;;;;3.60;1.00;;;1.80;99.90;;;;;;5095656;28;20024;-69
2023/03/28 01:45:21;;;;;;;2.55;0.90;;;1.80;99.90;;;;;;5095203;28;20016;-69
2023/03/28 01:47:53;;;;;;;1.08;0.73;;;1.80;99.90;;;;;;5095305;28;20153;-69
2023/03/28 01:50:26;;;;;;;1.90;0.88;;;1.80;99.90;;;;;;5077293;28;20024;-69
2023/03/28 01:52:54;;;;;;;1.00;0.80;;;1.90;99.90;;;;;;5095148;28;20048;-69
2023/03/28 01:55:29;;;;;;;3.25;0.82;;;1.90;99.90;;;;;;5076790;28;20509;-69
2023/03/28 01:58:12;;;;;;;0.77;0.70;;;1.80;99.90;;;;;;5095161;28;20036;-69
2023/03/28 02:00:41;;;;;;;2.75;1.20;;;1.80;99.90;;;;;;5095089;28;20028;-69
2023/03/28 02:03:17;;;;;;;2.20;0.90;;;1.80;99.90;;;;;;5094810;28;20046;-69
2023/03/28 02:05:45;;;;;;;1.13;0.55;;;1.70;99.90;;;;;;5076594;28;20024;-69
2023/03/28 02:08:12;;;;;;;0.80;0.70;;;1.70;99.90;;;;;;5076499;28;20023;-69
2023/03/28 02:10:41;;;;;;;3.38;0.80;;;1.60;99.90;;;;;;5094976;28;20046;-69
2023/03/28 02:13:21;;;;;;;0.80;0.80;;;1.70;99.90;;;;;;5076480;28;20061;-69
2023/03/28 02:15:53;;;;;;;2.03;1.25;;;1.60;99.90;;;;;;5076650;28;20024;-69
2023/03/28 02:18:22;;;;;;;4.03;0.70;;;1.60;99.90;;;;;;5094673;28;20575;-69
2023/03/28 02:20:59;;;;;;;1.83;0.80;;;1.60;99.90;;;;;;5076294;28;20400;-69
2023/03/28 02:23:38;;;;;;;2.53;0.95;;;1.60;99.90;;;;;;5076542;28;20107;-69
2023/03/28 02:26:05;;;;;;;3.28;0.88;;;1.60;99.90;;;;;;5095063;28;20103;-69
2023/03/28 02:28:32;;;;;;;2.42;0.82;;;1.60;99.90;;;;;;5076199;28;20058;-68
2023/03/28 02:31:00;;;;;;;1.48;1.05;;;1.50;99.90;;;;;;5094121;28;20362;-70
2023/03/28 02:33:47;;;;;;;2.15;0.80;;;1.60;99.90;;;;;;5076554;28;20020;-69
2023/03/28 02:36:27;;;;;;;1.15;0.68;;;1.50;99.90;;;;;;5076307;28;20020;-70
2023/03/28 02:39:21;;;;;;;1.30;0.80;;;1.60;99.90;;;;;;5076047;28;20024;-69
2023/03/28 02:42:08;;;;;;;3.70;1.20;;;1.50;99.90;;;;;;5076379;28;20031;-69
2023/03/28 02:44:52;;;;;;;1.52;0.70;;;1.60;99.90;;;;;;5094244;28;20048;-69
2023/03/28 02:47:42;;;;;;;0.93;0.47;;;1.60;99.90;;;;;;5076311;28;20417;-69
2023/03/28 02:50:24;;;;;;;1.75;0.88;;;1.60;99.90;;;;;;5094309;28;20075;-70
2023/03/28 02:52:57;;;;;;;1.88;0.93;;;1.70;99.90;;;;;;5094203;28;20048;-70
2023/03/28 02:55:49;;;;;;;1.38;0.77;;;1.60;99.90;;;;;;5076343;28;20074;-69
2023/03/28 02:58:22;;;;;;;0.60;0.40;;;1.60;99.90;;;;;;5094028;28;20337;-70
2023/03/28 03:00:48;;;;;;;1.85;0.50;;;1.60;99.90;;;;;;5094166;28;20020;-69
2023/03/28 03:03:16;;;;;;;0.95;0.85;;;1.60;99.90;;;;;;5094095;28;20066;-69
2023/03/28 03:05:41;;;;;;;1.98;0.60;;;1.70;99.90;;;;;;5093926;28;20057;-69
2023/03/28 03:08:07;;;;;;;3.83;0.73;;;1.60;99.90;;;;;;5093969;28;20020;-69
2023/03/28 03:10:33;;;;;;;1.45;0.47;;;1.60;99.90;;;;;;5093995;28;20391;-69
2023/03/28 03:12:58;;;;;;;2.78;0.38;;;1.70;99.90;;;;;;5094014;28;20517;-69
2023/03/28 03:15:24;;;;;;;2.13;0.93;;;1.70;99.90;;;;;;5093600;28;20070;-69
2023/03/28 03:17:51;;;;;;;2.05;0.68;;;1.70;99.90;;;;;;5075297;28;20020;-70
2023/03/28 03:20:17;;;;;;;3.00;0.52;;;1.60;99.90;;;;;;5075719;28;20021;-69
2023/03/28 03:22:43;;;;;;;4.05;1.63;;;1.60;99.90;;;;;;5075646;28;20024;-69
2023/03/28 03:25:11;;;;;;;4.60;0.82;;;1.50;99.90;;;;;;5075634;28;20077;-69
2023/03/28 03:27:38;;;;;;;1.10;0.30;;;1.60;99.90;;;;;;5075613;28;20052;-69
2023/03/28 03:30:04;;;;;;;3.47;0.50;;;1.60;99.90;;;;;;5075702;28;20452;-69
2023/03/28 03:32:30;;;;;;;2.72;0.45;;;1.60;99.90;;;;;;5075743;28;20016;-69
2023/03/28 03:34:56;;;;;;;1.38;0.40;;;1.70;99.90;;;;;;5076282;28;20020;-69
2023/03/28 03:37:22;;;;;;;1.85;0.50;;;1.70;99.90;;;;;;5095349;28;20101;-69
2023/03/28 03:39:47;;;;;;;2.80;0.45;;;1.80;99.90;;;;;;5077407;28;20026;-70
2023/03/28 03:42:13;;;;;;;3.70;0.50;;;1.80;99.90;;;;;;5095296;28;20020;-69
2023/03/28 03:44:39;;;;;;;1.50;0.60;;;1.80;99.90;;;;;;5095623;28;20028;-68
2023/03/28 03:47:05;;;;;;;2.58;0.73;;;1.80;99.90;;;;;;5096925;28;20406;-69
2023/03/28 03:49:31;;;;;;;1.23;0.40;;;1.80;99.90;;;;;;5080205;28;20016;-69
2023/03/28 03:51:56;;;;;;;0.50;0.40;;;1.80;99.90;;;;;;5079135;28;20024;-69
2023/03/28 03:54:22;;;;;;;2.40;1.17;;;1.70;99.90;;;;;;5097319;28;20024;-69
2023/03/28 03:56:48;;;;;;;2.45;0.50;;;1.80;99.90;;;;;;5097269;28;20467;-69
2023/03/28 03:59:15;;;;;;;1.23;0.63;;;1.80;99.90;;;;;;5097130;28;20460;-68
2023/03/28 04:01:42;;;;;;;2.38;0.70;;;1.80;99.90;;;;;;5096892;28;20020;-68
2023/03/28 04:04:09;;;;;;;3.33;1.20;;;1.80;99.90;;;;;;5097216;28;20023;-68
2023/03/28 04:06:37;;;;;;;1.33;0.80;;;1.70;99.90;;;;;;5097055;28;20024;-62
2023/03/28 04:09:04;;;;;;;1.58;1.30;;;1.90;99.90;;;;;;5078787;28;20444;-62
2023/03/28 04:11:30;;;;;;;2.42;1.63;;;2.00;99.90;;;;;;5096936;28;20020;-61
2023/03/28 04:13:55;;;;;;;2.70;2.05;;;2.10;99.90;;;;;;5097090;28;20467;-62
2023/03/28 04:16:22;;;;;;;2.88;1.85;;;2.20;99.90;;;;;;5096694;28;20020;-68
2023/03/28 04:18:51;;;;;;;6.50;1.75;;;2.20;99.90;;;;;;5097328;28;20027;-69
2023/03/28 04:21:26;;;;;;;;;;;2.00;99.90;;;;;;5097919;28;20028;-69
2023/03/28 04:23:52;;;;;;;4.13;2.00;;;1.90;99.90;;;;;;5078741;28;19936;-69
2023/03/28 04:26:24;;;;;;;2.45;1.85;;;1.80;99.90;;;;;;5079196;28;20364;-68
2023/03/28 04:28:51;;;;;;;2.25;1.70;;;1.70;99.90;;;;;;5097174;28;20020;-68
2023/03/28 04:31:18;;;;;;;2.00;1.55;;;1.60;99.90;;;;;;5096982;28;20016;-68
2023/03/28 04:33:44;;;;;;;1.58;1.48;;;1.60;99.90;;;;;;5096600;28;20016;-68
2023/03/28 04:36:10;;;;;;;1.70;1.60;;;1.60;99.90;;;;;;5096601;28;20022;-68
2023/03/28 04:38:36;;;;;;;4.78;1.27;;;1.60;99.90;;;;;;5096377;28;20027;-67
2023/03/28 04:41:04;;;;;;;1.38;1.27;;;1.60;99.90;;;;;;5096462;28;20024;-68
2023/03/28 04:43:30;;;;;;;4.00;1.77;;;1.60;99.90;;;;;;5096489;28;20103;-68
2023/03/28 04:45:57;;;;;;;0.70;0.70;;;1.60;99.90;;;;;;5078113;28;20270;-67
2023/03/28 04:48:24;;;;;;;1.25;0.82;;;1.60;99.90;;;;;;5096352;28;20097;-67
2023/03/28 04:50:51;;;;;;;1.65;0.85;;;1.70;99.90;;;;;;5078050;28;20081;-68
2023/03/28 04:53:17;;;;;;;1.00;0.90;;;1.70;99.90;;;;;;5077593;28;20040;-67
2023/03/28 04:55:48;;;;;;;1.20;0.85;;;1.80;99.90;;;;;;5096559;28;20035;-68
2023/03/28 04:58:16;;;;;;;2.20;0.70;;;1.80;99.90;;;;;;5078005;28;20368;-68
2023/03/28 05:00:42;;;;;;;2.25;0.60;;;1.70;99.90;;;;;;5078003;28;20086;-68
2023/03/28 05:03:17;;;;;;;1.33;1.08;;;1.80;99.90;;;;;;5077864;28;20020;-68
2023/03/28 05:05:44;;;;;;;3.05;1.00;;;1.80;99.90;;;;;;5096213;28;20016;-68
2023/03/28 05:08:11;;;;;;;2.28;1.05;;;2.00;99.90;;;;;;5077860;28;20469;-68
2023/03/28 05:10:38;;;;;;;2.20;0.90;;;2.00;99.90;;;;;;5096143;28;20024;-68
2023/03/28 05:13:04;;;;;;;4.35;1.35;;;2.00;99.90;;;;;;5077809;28;20023;-68
2023/03/28 05:15:30;;;;;;;1.30;0.88;;;2.00;99.90;;;;;;5077465;28;20107;-68
2023/03/28 05:17:56;;;;;;;0.88;0.80;;;2.10;99.90;;;;;;5095635;28;20158;-68
2023/03/28 05:20:23;;;;;;;1.40;0.98;;;2.10;99.90;;;;;;5077500;28;20035;-68
2023/03/28 05:22:49;;;;;;;0.70;0.63;;;2.20;99.90;;;;;;5095831;28;20024;-68
2023/03/28 05:25:15;;;;;;;2.15;1.30;;;2.20;99.90;;;;;;5077588;28;20108;-68
2023/03/28 05:27:40;;;;;;;1.98;1.05;;;2.20;99.90;;;;;;5095499;28;20028;-68
2023/03/28 05:30:08;;;;;;;1.67;1.45;;;2.10;99.90;;;;;;5095490;28;20020;-68
2023/03/28 05:32:34;;;;;;;1.90;1.65;;;2.20;99.90;;;;;;5076968;28;20023;-68
2023/03/28 05:35:00;;;;;;;1.50;1.35;;;2.20;99.90;;;;;;5077430;28;20016;-68
2023/03/28 05:37:25;;;;;;;3.20;1.80;;;2.30;99.90;;;;;;5077155;28;20459;-68
2023/03/28 05:39:51;;;;;;;1.58;1.25;;;2.30;99.90;;;;;;5077411;28;20379;-68
2023/03/28 05:42:17;;;;;;;2.92;1.70;;;2.40;99.90;;;;;;5095263;28;20027;-68
2023/03/28 05:44:43;;;;;;;3.08;2.00;;;2.50;99.90;;;;;;5077117;28;20130;-68
2023/03/28 05:47:09;;;;;;;2.63;1.80;;;2.60;99.90;;;;;;5096248;28;20028;-68
2023/03/28 05:49:34;;;;;;;4.78;2.13;;;2.60;99.90;;;;;;5097030;28;20016;-68
2023/03/28 05:52:00;;;;;;;2.25;1.75;;;2.70;99.90;;;;;;5095560;28;20024;-69
2023/03/28 05:54:25;;;;;;;1.55;1.40;;;2.70;99.90;;;;;;5095123;28;20024;-68
2023/03/28 05:56:51;;;;;;;2.78;1.77;;;2.70;99.90;;;;;;5075041;28;20023;-68
2023/03/28 05:59:17;;;;;;;3.67;1.70;;;2.60;99.90;;;;;;5076763;28;20027;-68
2023/03/28 06:01:45;;;;;;;3.85;1.90;;;2.60;99.90;;;;;;5076666;28;20020;-68
2023/03/28 06:04:11;;;;;;;2.10;1.60;;;2.60;99.90;;;;;;5094888;28;20099;-68
2023/03/28 06:06:37;;;;;;;5.65;1.77;;;2.60;99.90;;;;;;5093782;28;20505;-68
2023/03/28 06:09:03;;;;;;;2.35;1.60;;;2.70;99.90;;;;;;5093814;28;20031;-68
2023/03/28 06:11:29;;;;;;;3.25;1.52;;;2.70;99.90;;;;;;5094878;28;20024;-68
2023/03/28 06:13:55;;;;;;;3.20;1.55;;;2.70;99.90;;;;;;5085417;28;20481;-69
2023/03/28 06:16:20;;;;;;;2.83;1.10;;;2.70;99.90;;;;;;5093622;28;20103;-69
2023/03/28 06:18:46;;;;;;;1.92;1.45;;;2.80;99.90;;;;;;5094431;28;20519;-69
2023/03/28 06:21:11;;;;;;;1.73;1.20;;;2.80;99.90;;;;;;5094158;28;20031;-68
2023/03/28 06:23:38;;;;;;;4.53;1.48;;;2.80;99.90;;;;;;5093827;28;20021;-69
2023/03/28 06:26:04;;;;;;;3.33;1.00;;;2.90;99.90;;;;;;5094217;28;20024;-68
2023/03/28 06:28:30;;;;;;;8.15;1.85;;;2.80;99.90;;;;;;5094353;28;20429;-68
2023/03/28 06:30:55;;;;;;;1.50;1.20;;;3.00;99.90;;;;;;5094065;28;20025;-67
2023/03/28 06:33:21;;;;;;;2.78;1.58;;;3.30;99.90;;;;;;5094516;28;20027;-68
2023/03/28 06:35:47;;;;;;;3.25;1.40;;;3.70;99.90;;;;;;5093961;28;20062;-67
2023/03/28 06:38:12;;;;;;;2.50;1.40;;;4.10;99.90;;;;;;5093147;28;20448;-68
2023/03/28 06:40:38;;;;;;;3.78;1.30;;;4.30;99.90;;;;;;5093066;28;20384;-67
2023/03/28 06:43:03;;;;;;;1.88;1.40;;;4.30;99.90;;;;;;5093067;28;20119;-67
2023/03/28 06:45:29;;;;;;;3.03;1.58;;;4.40;99.90;;;;;;5092732;28;20035;-68
2023/03/28 06:47:55;;;;;;;1.60;0.98;;;4.50;99.90;;;;;;5092759;28;20032;-68
2023/03/28 06:50:20;;;;;;;2.50;1.50;;;4.50;99.90;;;;;;5094001;28;20070;-68
2023/03/28 06:52:46;;;;;;;1.40;1.20;;;4.30;99.90;;;;;;5093572;28;20055;-68
2023/03/28 06:55:12;;;;;;;2.80;1.45;;;4.10;99.90;;;;;;5092414;28;20046;-68
2023/03/28 06:57:37;;;;;;;2.38;1.63;;;4.00;99.90;;;;;;5092620;28;20077;-67
2023/03/28 07:00:06;;;;;;;2.25;1.13;;;3.90;99.90;;;;;;5094361;28;20035;-68
2023/03/28 07:02:31;;;;;;;4.60;1.43;;;3.90;99.90;;;;;;5093887;28;20107;-67
2023/03/28 07:04:57;;;;;;;2.92;1.58;;;3.80;99.90;;;;;;5093576;28;20103;-67
2023/03/28 07:07:23;;;;;;;2.65;1.63;;;3.90;99.90;;;;;;5092693;28;20034;-67
2023/03/28 07:09:50;;;;;;;3.90;1.63;;;3.70;99.90;;;;;;5093505;28;20036;-67
2023/03/28 07:12:17;;;;;;;1.17;1.10;;;3.70;99.90;;;;;;5092474;28;20444;-67
2023/03/28 07:14:43;;;;;;;1.83;1.52;;;3.70;99.90;;;;;;5093796;28;20081;-68
2023/03/28 07:17:10;;;;;;;1.75;1.33;;;3.80;99.90;;;;;;5093731;28;20479;-68
2023/03/28 07:19:36;;;;;;;1.73;1.27;;;3.80;99.90;;;;;;5092435;28;20032;-68
2023/03/28 07:22:02;;;;;;;2.05;1.67;;;3.80;99.90;;;;;;5097885;28;20376;-68
2023/03/28 07:24:28;;;;;;;3.80;1.50;;;4.20;99.90;;;;;;5097795;28;20119;-68
2023/03/28 07:26:54;;;;;;;1.52;1.27;;;4.60;99.90;;;;;;5096712;28;20601;-68
2023/03/28 07:29:20;;;;;;;2.70;1.63;;;4.90;99.90;;;;;;5096761;28;20103;-68
2023/03/28 07:31:46;;;;;;;1.77;1.20;;;4.80;99.90;;;;;;5096362;28;20028;-68
2023/03/28 07:34:11;;;;;;;2.58;1.60;;;4.50;99.90;;;;;;5097343;28;20028;-68
2023/03/28 07:36:38;;;;;;;7.47;2.00;;;4.40;99.90;;;;;;5096258;28;20032;-68
2023/03/28 07:39:04;;;;;;;3.33;1.48;;;4.20;99.90;;;;;;5096141;28;20028;-68
2023/03/28 07:41:30;;;;;;;5.95;1.75;;;4.20;99.90;;;;;;5096182;28;20032;-68
2023/03/28 07:43:56;;;;;;;2.88;1.15;;;4.40;99.90;;;;;;5096150;28;20031;-68
2023/03/28 07:46:23;;;;;;;2.10;1.20;;;4.80;99.80;;;;;;5097380;28;20425;-68
2023/03/28 07:48:49;;;;;;;1.70;0.85;;;5.00;99.70;;;;;;5097584;28;20483;-68
2023/03/28 07:51:15;;;;;;;3.08;1.17;;;5.00;97.90;;;;;;5097381;28;20025;-68
2023/03/28 07:53:40;;;;;;;2.72;1.40;;;4.80;98.60;;;;;;5097382;28;20044;-68
2023/03/28 07:56:11;;;;;;;9.25;1.42;;;4.50;99.10;;;;;;5097043;28;20456;-67
2023/03/28 07:58:40;;;;;;;3.22;1.55;;;4.30;99.90;;;;;;5095960;28;20032;-69
2023/03/28 08:01:08;;;;;;;2.30;1.60;;;4.10;99.90;;;;;;5095959;28;20409;-68
2023/03/28 08:03:35;;;;;;;2.60;1.60;;;4.00;99.90;;;;;;5097114;28;20020;-68
2023/03/28 08:06:02;;;;;;;2.60;2.17;;;3.80;99.90;;;;;;5096095;28;20435;-69
2023/03/28 08:08:29;;;;;;;3.15;2.10;;;3.80;99.90;;;;;;5095725;28;20100;-70
2023/03/28 08:10:55;;;;;;;4.78;1.67;;;3.60;99.90;;;;;;5096886;28;20024;-68
2023/03/28 08:13:21;;;;;;;2.40;1.60;;;3.60;99.90;;;;;;5095664;28;20383;-69
2023/03/28 08:15:51;;;;;;;4.47;1.70;;;3.50;99.90;;;;;;5095864;28;20047;-70
2023/03/28 08:18:20;;;;;;;3.55;1.55;;;3.40;99.90;;;;;;5097143;28;20070;-70
2023/03/28 08:20:47;;;;;;;2.13;1.92;;;3.50;99.90;;;;;;5096002;28;20379;-70
2023/03/28 08:23:13;;;;;;;3.20;1.90;;;3.40;99.90;;;;;;5097139;28;20368;-70
2023/03/28 08:25:39;;;;;;;4.30;1.98;;;3.30;99.90;;;;;;5096772;28;20032;-66
2023/03/28 08:28:05;;;;;;;5.13;1.90;;;3.30;99.90;;;;;;5094650;28;20031;-71
2023/03/28 08:30:31;;;;;;;2.53;1.85;;;3.30;99.90;;;;;;5067473;28;20029;-71
2023/03/28 08:32:57;;;;;;;2.17;1.50;;;3.30;99.90;;;;;;5084392;28;20118;-71
2023/03/28 08:35:23;;;;;;;2.92;1.92;;;3.30;99.90;;;;;;5085008;28;20067;-63
2023/03/28 08:37:52;;;;;;;3.70;1.60;;;3.40;99.90;;;;;;5084156;28;20035;-66
2023/03/28 08:40:19;;;;;;;3.80;1.73;;;3.70;99.90;;;;;;5084141;28;20028;-64
2023/03/28 08:43:06;;;;;;;6.75;1.90;;;3.90;99.90;;;;;;5085992;28;20051;-66
2023/03/28 08:45:55;;;;;;;2.65;1.75;;;4.00;99.90;;;;;;5084956;28;20036;-64
2023/03/28 08:48:41;;;;;;;5.45;2.00;;;4.10;99.90;;;;;;5087598;28;20059;-63
2023/03/28 08:51:31;;;;;;;4.50;1.20;;;4.20;99.90;;;;;;5096253;28;20024;-69
2023/03/28 08:54:07;;;;;;;1.75;0.47;;;4.20;99.90;;;;;;5074253;28;20134;-70
2023/03/28 08:56:41;;;;;;;2.55;0.60;;;4.10;96.90;;;;;;5076174;28;20059;-70
2023/03/28 08:59:11;;;;;;;1.83;0.40;;;4.20;94.70;;;;;;5076556;28;20431;-70
2023/03/28 09:01:38;;;;;;;4.30;0.30;;;4.30;93.00;;;;;;5077342;28;20028;-70
2023/03/28 09:04:04;;;;;;;2.60;0.30;;;4.60;91.50;;;;;;5075768;28;20041;-70
2023/03/28 09:06:41;;;;;;;3.75;0.40;;;4.70;90.70;;;;;;5075233;28;20085;-70
2023/03/28 09:09:12;;;;;;;2.13;0.30;;;4.80;89.90;;;;;;5076938;28;20040;-70
2023/03/28 09:12:07;;;;;;;2.28;0.30;;;4.80;89.40;;;;;;5075752;28;20508;-70
2023/03/28 09:15:05;;;;;;;2.30;0.30;;;4.70;88.10;;;;;;5075946;28;20024;-70
2023/03/28 09:17:58;;;;;;;5.38;0.63;;;4.60;88.50;;;;;;5067221;28;20071;-70
2023/03/28 09:20:50;;;;;;;7.72;0.52;;;4.50;90.40;;;;;;5074239;28;20032;-70
2023/03/28 09:23:47;;;;;;;1.90;0.45;;;4.60;92.90;;;;;;5074127;28;20119;-70
2023/03/28 09:26:21;;;;;;;2.97;0.30;;;4.40;95.30;;;;;;5074855;28;20119;-69
2023/03/28 09:29:17;;;;;;;1.35;0.25;;;4.40;95.70;;;;;;5075330;28;20120;-70
2023/03/28 09:31:48;;;;;;;2.83;0.47;;;4.80;96.70;;;;;;5062635;28;20090;-70
2023/03/28 09:34:21;;;;;;;2.10;0.22;;;5.90;93.60;;;;;;5075146;28;20027;-70
2023/03/28 09:36:49;;;;;;;3.42;0.45;;;6.00;87.20;;;;;;5073994;28;20029;-70
2023/03/28 09:39:27;;;;;;;1.88;0.35;;;5.60;87.00;;;;;;5074914;28;20066;-69
2023/03/28 09:42:03;;;;;;;4.00;0.20;;;4.90;89.60;;;;;;5075013;28;20035;-69
2023/03/28 09:44:36;;;;;;;0.90;0.30;;;4.90;90.00;;;;;;5073969;28;20036;-69
2023/03/28 09:47:07;;;;;;;0.68;0.30;;;4.50;88.90;;;;;;5075100;28;20020;-69
2023/03/28 09:49:33;;;;;;;3.35;0.22;;;4.50;90.40;;;;;;5073872;28;20067;-70
2023/03/28 09:51:59;;;;;;;4.22;0.32;;;4.50;90.60;;;;;;5075831;28;20036;-70
2023/03/28 09:54:31;;;;;;;1.40;0.43;;;4.60;90.60;;;;;;5077660;28;20085;-70
2023/03/28 09:57:02;;;;;;;3.22;0.50;;;4.50;88.90;;;;;;5078028;28;20028;-69
2023/03/28 09:59:30;;;;;;;4.50;0.50;;;4.70;88.40;;;;;;5078484;28;20487;-69
2023/03/28 10:01:57;;;;;;;1.38;0.60;;;4.80;84.60;;;;;;5096223;28;20020;-69
2023/03/28 10:04:29;;;;;;;5.45;0.55;;;5.00;85.60;;;;;;5077191;28;20024;-69
2023/03/28 10:07:10;;;;;;;3.78;0.70;;;5.10;85.10;;;;;;5095154;28;20108;-70
2023/03/28 10:10:15;;;;;;;5.25;1.00;;;4.80;90.40;;;;;;5076612;28;20521;-69
2023/03/28 10:12:42;;;;;;;2.35;0.68;;;4.60;92.40;;;;;;5082899;28;20507;-70
2023/03/28 10:15:31;;;;;;;0.57;0.40;;;4.70;93.20;;;;;;5094861;28;20024;-69
2023/03/28 10:18:00;;;;;;;1.13;0.70;;;4.60;93.60;;;;;;5059889;28;20043;-70
2023/03/28 10:20:25;;;;;;;;;;;4.70;93.30;;;;;;5076809;28;20032;-69
2023/03/28 10:22:53;;;;;;;0.25;0.20;;;4.70;93.70;;;;;;5076292;28;20352;-69
2023/03/28 10:25:30;;;;;;;1.63;0.35;;;4.80;93.20;;;;;;5094660;28;20020;-69
2023/03/28 10:27:59;;;;;;;2.72;0.20;;;5.30;91.30;;;;;;5094443;28;20024;-69
2023/03/28 10:30:28;;;;;;;1.13;0.35;;;6.60;88.90;;;;;;5076101;28;20055;-62
2023/03/28 10:33:16;;;;;;;0.90;0.20;;;7.90;83.50;;;;;;5076104;28;20028;-62
2023/03/28 10:35:59;;;;;;;0.30;0.20;;;8.70;74.70;;;;;;5076096;28;20024;-63
2023/03/28 10:38:31;;;;;;;0.88;0.40;;;9.80;69.80;;;;;;5093656;28;20036;-62
2023/03/28 10:41:08;;;;;;;2.75;0.30;;;9.20;66.90;;;;;;5076046;28;20028;-61
2023/03/28 10:43:40;;;;;;;1.27;0.30;;;8.70;69.10;;;;;;5094117;28;20107;-61
2023/03/28 10:46:30;;;;;;;0.73;0.40;;;8.50;69.10;;;;;;5093828;28;20031;-62
2023/03/28 10:49:00;;;;;;;2.10;0.40;;;8.10;68.40;;;;;;5094145;28;20082;-62
2023/03/28 10:51:30;;;;;;;0.82;0.30;;;7.10;77.30;;;;;;5094667;28;20452;-61
2023/03/28 10:53:58;;;;;;;2.72;0.20;;;6.30;84.90;;;;;;5093857;28;20484;-61
2023/03/28 10:56:32;;;;;;;3.70;0.82;;;6.40;89.40;;;;;;5075789;28;20035;-61
2023/03/28 10:59:03;;;;;;;1.08;0.25;;;7.40;82.30;;;;;;5076061;28;20043;-62
2023/03/28 11:01:42;;;;;;;1.85;0.32;;;8.00;76.90;;;;;;5093929;28;20080;-62
2023/03/28 11:04:20;;;;;;;4.18;0.25;;;8.20;71.20;;;;;;5094092;28;20031;-61
2023/03/28 11:06:51;;;;;;;2.75;0.95;;;8.10;68.50;;;;;;5093989;28;20028;-61
2023/03/28 11:09:29;;;;;;;4.78;1.75;;;7.80;71.20;;;;;;5076024;28;20069;-61
2023/03/28 11:12:07;;;;;;;1.83;0.32;;;7.20;71.70;;;;;;5093556;28;20031;-62
2023/03/28 11:14:43;;;;;;;4.13;0.40;;;7.30;72.20;;;;;;5075897;28;20028;-62
2023/03/28 11:17:37;;;;;;;3.13;0.40;;;7.00;74.40;;;;;;5093782;28;20380;-62
2023/03/28 11:20:21;;;;;;;2.13;0.40;;;6.90;74.50;;;;;;5075755;28;20589;-62
2023/03/28 11:23:05;;;;;;;1.10;0.30;;;6.60;69.50;;;;;;5093731;28;20046;-62
2023/03/28 11:25:49;;;;;;;0.22;0.13;;;6.30;68.50;;;;;;5075699;28;20020;-62
2023/03/28 11:28:29;;;;;;;1.65;0.25;;;6.50;70.60;;;;;;5093930;28;20028;-62
2023/03/28 11:30:58;;;;;;;0.88;0.43;;;7.50;71.00;;;;;;5093698;28;20024;-62
2023/03/28 11:33:58;;;;;;;1.90;0.30;;;8.30;68.70;;;;;;5093880;28;20026;-62
2023/03/28 11:36:34;;;;;;;2.60;0.75;;;9.20;65.00;;;;;;5093619;28;20020;-69
2023/03/28 11:39:12;;;;;;;2.80;0.15;;;9.60;60.60;;;;;;5093615;28;20028;-68
2023/03/28 11:41:40;;;;;;;2.45;0.30;;;10.20;57.30;;;;;;5075490;28;20024;-68
2023/03/28 11:44:27;;;;;;;0.98;0.32;;;10.10;54.00;;;;;;5093558;28;20028;-68
2023/03/28 11:47:03;;;;;;;0.52;0.40;;;10.90;52.30;;;;;;5093265;28;20032;-68
2023/03/28 11:49:50;;;;;;;1.17;0.30;;;11.30;45.80;;;;;;5093418;28;20110;-69
2023/03/28 11:52:22;;;;;;;2.17;0.22;;;11.50;44.90;;;;;;5093054;28;20507;-68
2023/03/28 11:54:52;;;;;;;1.13;0.20;;;12.30;44.20;;;;;;5093518;28;20030;-71
2023/03/28 11:57:18;;;;;;;0.88;0.30;;;13.30;41.80;;;;;;5074716;28;20031;-72
2023/03/28 12:00:19;;;;;;;0.90;0.30;;;12.50;40.10;;;;;;5075069;28;20028;-72
2023/03/28 12:03:12;;;;;;;5.45;0.40;;;11.10;41.20;;;;;;5075328;28;20024;-71
2023/03/28 12:06:05;;;;;;;3.35;0.40;;;9.70;42.50;;;;;;5075418;28;20024;-72
2023/03/28 12:08:44;;;;;;;0.93;0.30;;;8.00;48.20;;;;;;5043330;28;20040;-71
2023/03/28 12:11:22;;;;;;;1.83;0.50;;;6.90;53.00;;;;;;5078920;28;20035;-71
2023/03/28 12:13:53;;;;;;;0.70;0.20;;;6.40;56.60;;;;;;5078958;28;20028;-72
2023/03/28 12:16:35;;;;;;;1.95;0.30;;;6.20;60.00;;;;;;5097449;28;20085;-72
2023/03/28 12:19:04;;;;;;;1.23;0.32;;;7.50;59.60;;;;;;5097049;28;20028;-72
2023/03/28 12:21:43;;;;;;;1.80;0.43;;;7.80;58.10;;;;;;5078943;28;20039;-72
2023/03/28 12:24:28;;;;;;;;;;;7.70;57.70;;;;;;5097358;28;20056;-71
2023/03/28 12:27:21;;;;;;;2.47;0.45;;;8.80;54.50;;;;;;5078724;28;20249;-74
2023/03/28 12:30:04;;;;;;;1.98;0.32;;;9.60;53.00;;;;;;5078554;28;20024;-72
2023/03/28 12:32:37;;;;;;;0.77;0.20;;;10.00;50.60;;;;;;5078411;28;20111;-71
2023/03/28 12:35:20;;;;;;;0.80;0.30;;;10.20;48.90;;;;;;5096556;28;20024;-71
2023/03/28 12:38:11;;;;;;;1.75;0.30;;;10.10;49.30;;;;;;5078368;28;20042;-71
2023/03/28 12:40:58;;;;;;;1.10;0.40;;;10.70;49.10;;;;;;5078965;28;20099;-71
2023/03/28 12:43:50;;;;;;;1.70;0.50;;;10.20;49.50;;;;;;5096401;28;20028;-71
2023/03/28 12:46:21;;;;;;;1.48;0.30;;;10.00;50.10;;;;;;5078660;28;20028;-72
2023/03/28 12:48:59;;;;;;;5.03;0.50;;;9.40;52.00;;;;;;5096552;28;20020;-70
2023/03/28 12:51:42;;;;;;;1.20;0.47;;;9.70;53.00;;;;;;5096357;28;20028;-71
2023/03/28 12:54:20;;;;;;;2.00;0.20;;;10.30;50.50;;;;;;5096369;28;20442;-72
2023/03/28 12:56:59;;;;;;;1.55;0.20;;;10.60;49.60;;;;;;5096410;28;20093;-72
2023/03/28 12:59:37;;;;;;;3.25;0.50;;;10.30;48.30;;;;;;5096534;28;20077;-72
2023/03/28 13:02:20;;;;;;;3.58;0.70;;;9.40;49.10;;;;;;5078373;28;20024;-72
2023/03/28 13:05:18;;;;;;;1.77;0.52;;;9.30;49.80;;;;;;5096315;28;20024;-72
2023/03/28 13:08:03;;;;;;;0.65;0.20;;;8.80;48.10;;;;;;5096674;28;20080;-71
2023/03/28 13:10:49;;;;;;;2.20;0.43;;;8.00;49.60;;;;;;5096114;28;20036;-71
2023/03/28 13:13:20;;;;;;;2.28;0.80;;;7.50;49.40;;;;;;5094933;28;20036;-71
2023/03/28 13:16:01;;;;;;;1.85;0.40;;;7.40;49.80;;;;;;5077747;28;20451;-73
2023/03/28 13:18:30;;;;;;;2.25;0.40;;;7.30;48.70;;;;;;5078516;28;20380;-76
2023/03/28 13:20:58;;;;;;;0.40;0.30;;;7.20;50.00;;;;;;5096238;28;20039;-76
2023/03/28 13:23:37;;;;;;;0.60;0.30;;;7.20;51.70;;;;;;5095972;28;20032;-76